首页
METAR-TAF:

METAR-TAF

机场 :

汶萊國際機場

文莱, 文莱

纬度: 04-56N, 经度: 114-56E, 海拔: 22米

当前天气观测

该预报发布于48分钟前的03:30 UTC
风速3节,风向东转东南
温度 27°C
湿度 84%
气压 1011 hPa
能见度10公里或以上
少量云层高于1400英尺
多云层高于14000英尺

METAR: WBSB 230330Z 12003KT 9999 FEW014 BKN140 27/24 Q1011 RERA TEMPO 5000 SHRA TSRA

时间: 12:18 (04:18 UTC)

预报

该预报发布于5小时和28分钟前的22:50 UTC
预报有效从23日的 00点(UTC)到 24日的 06点(UTC)
风速3节,风向南转西南
能见度10公里或以上
散云层高于1400英尺
少量云层高于1500英尺, 积雨云.
短暂存在
从 23日的 00点(UTC)到 23日的 02点(UTC)
能見度: 6000
阵雨, 雷暴, 雨
成为
从 23日的 03点(UTC)到 23日的 05点(UTC)
风速10节,风向西北
散云层高于1500英尺
少量云层高于1600英尺, 积雨云.

TAF: WBSB 222250Z 2300/2406 20003KT 9999 SCT014 FEW015CB TEMPO 2300/2302 6000 SHRA TSRA BECMG 2303/2305 32010KT SCT015 FEW016CB

超过4000个机场的气象观测和天气预报(METAR&TAF报告)。

可查询的气象台以黄色和红色小点在地图上表示。

将鼠标移到小点上方,可查看气象台名称。

然后点击查看天气观测和预报。

如需切换地图:点击带黑十字的绿色按钮放大地图;点击带横线的绿色按钮缩小地图;或者点击绿色箭头查看邻近地区的地图。


METAR-TAF: